sensor_id;sensor_type;location;lat;lon;timestamp;P1;durP1;ratioP1;P2;durP2;ratioP2
51927;SDS011;37953;52.806;18.270;2023-06-22T00:01:02;17.83;;;13.35;;
51927;SDS011;37953;52.806;18.270;2023-06-22T00:03:38;18.45;;;13.98;;
51927;SDS011;37953;52.806;18.270;2023-06-22T00:06:04;20.40;;;13.35;;
51927;SDS011;37953;52.806;18.270;2023-06-22T00:08:30;17.80;;;13.23;;
51927;SDS011;37953;52.806;18.270;2023-06-22T00:10:56;17.67;;;12.50;;
51927;SDS011;37953;52.806;18.270;2023-06-22T00:13:21;19.27;;;13.05;;
51927;SDS011;37953;52.806;18.270;2023-06-22T00:15:47;16.10;;;12.60;;
51927;SDS011;37953;52.806;18.270;2023-06-22T00:18:13;14.93;;;12.50;;
51927;SDS011;37953;52.806;18.270;2023-06-22T00:20:39;16.38;;;12.75;;
51927;SDS011;37953;52.806;18.270;2023-06-22T00:23:06;18.27;;;12.13;;
51927;SDS011;37953;52.806;18.270;2023-06-22T00:25:35;18.20;;;12.43;;
51927;SDS011;37953;52.806;18.270;2023-06-22T00:28:05;16.77;;;11.80;;
51927;SDS011;37953;52.806;18.270;2023-06-22T00:30:33;16.88;;;11.55;;
51927;SDS011;37953;52.806;18.270;2023-06-22T00:33:05;16.55;;;12.70;;
51927;SDS011;37953;52.806;18.270;2023-06-22T00:35:33;16.30;;;12.45;;
51927;SDS011;37953;52.806;18.270;2023-06-22T00:37:59;17.90;;;12.13;;
51927;SDS011;37953;52.806;18.270;2023-06-22T00:40:27;15.55;;;10.93;;
51927;SDS011;37953;52.806;18.270;2023-06-22T00:42:54;17.73;;;12.40;;
51927;SDS011;37953;52.806;18.270;2023-06-22T00:45:21;16.77;;;11.75;;
51927;SDS011;37953;52.806;18.270;2023-06-22T00:47:52;17.48;;;11.93;;
51927;SDS011;37953;52.806;18.270;2023-06-22T00:50:22;17.33;;;11.85;;
51927;SDS011;37953;52.806;18.270;2023-06-22T00:52:54;17.90;;;12.07;;
51927;SDS011;37953;52.806;18.270;2023-06-22T00:55:22;18.05;;;12.27;;
51927;SDS011;37953;52.806;18.270;2023-06-22T00:57:48;17.17;;;11.80;;
51927;SDS011;37953;52.806;18.270;2023-06-22T01:00:18;17.58;;;12.63;;
51927;SDS011;37953;52.806;18.270;2023-06-22T01:02:45;19.15;;;12.30;;
51927;SDS011;37953;52.806;18.270;2023-06-22T01:05:21;16.15;;;12.57;;
51927;SDS011;37953;52.806;18.270;2023-06-22T01:07:51;19.08;;;12.75;;
51927;SDS011;37953;52.806;18.270;2023-06-22T01:12:53;20.70;;;13.38;;
51927;SDS011;37953;52.806;18.270;2023-06-22T01:15:37;19.25;;;13.13;;
51927;SDS011;37953;52.806;18.270;2023-06-22T01:18:11;21.55;;;13.23;;
51927;SDS011;37953;52.806;18.270;2023-06-22T01:20:39;21.20;;;13.32;;
51927;SDS011;37953;52.806;18.270;2023-06-22T01:28:58;16.73;;;12.80;;
51927;SDS011;37953;52.806;18.270;2023-06-22T01:31:26;19.98;;;12.40;;
51927;SDS011;37953;52.806;18.270;2023-06-22T01:34:00;19.88;;;11.88;;
51927;SDS011;37953;52.806;18.270;2023-06-22T01:36:29;18.40;;;12.20;;
51927;SDS011;37953;52.806;18.270;2023-06-22T01:39:02;17.92;;;12.52;;
51927;SDS011;37953;52.806;18.270;2023-06-22T01:41:34;17.85;;;12.13;;
51927;SDS011;37953;52.806;18.270;2023-06-22T01:44:02;21.67;;;13.55;;
51927;SDS011;37953;52.806;18.270;2023-06-22T01:46:35;17.27;;;11.73;;
51927;SDS011;37953;52.806;18.270;2023-06-22T01:49:02;17.38;;;11.55;;
51927;SDS011;37953;52.806;18.270;2023-06-22T01:51:30;17.15;;;11.20;;
51927;SDS011;37953;52.806;18.270;2023-06-22T01:53:56;18.48;;;10.90;;
51927;SDS011;37953;52.806;18.270;2023-06-22T01:56:22;18.05;;;10.40;;
51927;SDS011;37953;52.806;18.270;2023-06-22T01:58:50;15.77;;;10.35;;
51927;SDS011;37953;52.806;18.270;2023-06-22T02:01:40;15.77;;;9.60;;
51927;SDS011;37953;52.806;18.270;2023-06-22T02:04:22;15.93;;;10.02;;
51927;SDS011;37953;52.806;18.270;2023-06-22T02:06:54;16.50;;;9.52;;
51927;SDS011;37953;52.806;18.270;2023-06-22T02:09:22;15.98;;;8.98;;
51927;SDS011;37953;52.806;18.270;2023-06-22T02:11:50;14.40;;;9.15;;
51927;SDS011;37953;52.806;18.270;2023-06-22T02:14:21;15.30;;;9.38;;
51927;SDS011;37953;52.806;18.270;2023-06-22T02:16:48;15.95;;;9.77;;
51927;SDS011;37953;52.806;18.270;2023-06-22T02:19:16;16.52;;;9.05;;
51927;SDS011;37953;52.806;18.270;2023-06-22T02:21:48;16.65;;;9.60;;
51927;SDS011;37953;52.806;18.270;2023-06-22T02:24:14;14.20;;;9.70;;
51927;SDS011;37953;52.806;18.270;2023-06-22T02:26:40;15.15;;;9.65;;
51927;SDS011;37953;52.806;18.270;2023-06-22T02:29:07;14.90;;;10.07;;
51927;SDS011;37953;52.806;18.270;2023-06-22T02:31:34;16.30;;;10.63;;
51927;SDS011;37953;52.806;18.270;2023-06-22T02:33:59;16.95;;;11.50;;
51927;SDS011;37953;52.806;18.270;2023-06-22T02:36:26;19.40;;;11.73;;
51927;SDS011;37953;52.806;18.270;2023-06-22T02:38:56;18.05;;;12.13;;
51927;SDS011;37953;52.806;18.270;2023-06-22T02:41:29;18.27;;;10.85;;
51927;SDS011;37953;52.806;18.270;2023-06-22T02:43:55;19.00;;;11.65;;
51927;SDS011;37953;52.806;18.270;2023-06-22T02:46:21;18.48;;;11.43;;
51927;SDS011;37953;52.806;18.270;2023-06-22T02:48:47;17.30;;;11.50;;
51927;SDS011;37953;52.806;18.270;2023-06-22T02:51:13;18.67;;;12.00;;
51927;SDS011;37953;52.806;18.270;2023-06-22T02:53:40;18.00;;;11.52;;
51927;SDS011;37953;52.806;18.270;2023-06-22T02:56:10;18.87;;;12.13;;
51927;SDS011;37953;52.806;18.270;2023-06-22T02:58:36;20.70;;;12.35;;
51927;SDS011;37953;52.806;18.270;2023-06-22T03:01:06;19.38;;;13.00;;
51927;SDS011;37953;52.806;18.270;2023-06-22T03:03:32;18.38;;;12.30;;
51927;SDS011;37953;52.806;18.270;2023-06-22T03:05:58;20.25;;;11.57;;
51927;SDS011;37953;52.806;18.270;2023-06-22T03:08:26;18.80;;;11.80;;
51927;SDS011;37953;52.806;18.270;2023-06-22T03:10:52;15.93;;;11.55;;
51927;SDS011;37953;52.806;18.270;2023-06-22T03:13:18;21.30;;;11.18;;
51927;SDS011;37953;52.806;18.270;2023-06-22T03:15:44;17.00;;;9.63;;
51927;SDS011;37953;52.806;18.270;2023-06-22T03:18:11;16.60;;;9.50;;
51927;SDS011;37953;52.806;18.270;2023-06-22T03:20:37;17.20;;;9.40;;
51927;SDS011;37953;52.806;18.270;2023-06-22T03:23:03;16.08;;;8.13;;
51927;SDS011;37953;52.806;18.270;2023-06-22T03:25:30;15.63;;;8.18;;
51927;SDS011;37953;52.806;18.270;2023-06-22T03:28:02;13.98;;;6.97;;
51927;SDS011;37953;52.806;18.270;2023-06-22T03:30:28;14.65;;;6.90;;
51927;SDS011;37953;52.806;18.270;2023-06-22T03:32:54;13.60;;;7.03;;
51927;SDS011;37953;52.806;18.270;2023-06-22T03:35:20;13.77;;;6.18;;
51927;SDS011;37953;52.806;18.270;2023-06-22T03:37:47;11.13;;;6.22;;
51927;SDS011;37953;52.806;18.270;2023-06-22T03:40:13;11.13;;;6.38;;
51927;SDS011;37953;52.806;18.270;2023-06-22T03:42:38;13.68;;;6.20;;
51927;SDS011;37953;52.806;18.270;2023-06-22T03:45:05;13.00;;;6.32;;
51927;SDS011;37953;52.806;18.270;2023-06-22T03:47:31;11.50;;;6.13;;
51927;SDS011;37953;52.806;18.270;2023-06-22T03:49:57;37.05;;;8.55;;
51927;SDS011;37953;52.806;18.270;2023-06-22T03:52:23;12.05;;;7.10;;
51927;SDS011;37953;52.806;18.270;2023-06-22T03:54:50;9.55;;;6.18;;
51927;SDS011;37953;52.806;18.270;2023-06-22T03:57:16;10.40;;;5.88;;
51927;SDS011;37953;52.806;18.270;2023-06-22T03:59:42;12.18;;;6.40;;
51927;SDS011;37953;52.806;18.270;2023-06-22T04:02:08;8.05;;;5.25;;
51927;SDS011;37953;52.806;18.270;2023-06-22T04:04:34;8.40;;;5.40;;
51927;SDS011;37953;52.806;18.270;2023-06-22T04:07:00;11.13;;;5.47;;
51927;SDS011;37953;52.806;18.270;2023-06-22T04:09:27;10.05;;;5.20;;
51927;SDS011;37953;52.806;18.270;2023-06-22T04:11:52;10.98;;;5.30;;
51927;SDS011;37953;52.806;18.270;2023-06-22T04:14:18;8.02;;;5.40;;
51927;SDS011;37953;52.806;18.270;2023-06-22T04:16:44;10.85;;;5.68;;
51927;SDS011;37953;52.806;18.270;2023-06-22T04:19:11;12.25;;;6.43;;
51927;SDS011;37953;52.806;18.270;2023-06-22T04:24:13;9.55;;;5.32;;
51927;SDS011;37953;52.806;18.270;2023-06-22T04:26:40;12.85;;;5.60;;
51927;SDS011;37953;52.806;18.270;2023-06-22T04:29:12;11.80;;;5.63;;
51927;SDS011;37953;52.806;18.270;2023-06-22T04:31:38;11.43;;;5.13;;
51927;SDS011;37953;52.806;18.270;2023-06-22T04:34:05;12.32;;;5.00;;
51927;SDS011;37953;52.806;18.270;2023-06-22T04:36:33;12.32;;;4.90;;
51927;SDS011;37953;52.806;18.270;2023-06-22T04:39:07;10.65;;;5.40;;
51927;SDS011;37953;52.806;18.270;2023-06-22T04:41:38;12.48;;;5.82;;
51927;SDS011;37953;52.806;18.270;2023-06-22T04:44:11;7.93;;;4.93;;
51927;SDS011;37953;52.806;18.270;2023-06-22T04:46:38;12.07;;;4.80;;
51927;SDS011;37953;52.806;18.270;2023-06-22T04:49:06;10.45;;;4.80;;
51927;SDS011;37953;52.806;18.270;2023-06-22T04:51:44;11.45;;;4.60;;
51927;SDS011;37953;52.806;18.270;2023-06-22T04:54:10;10.70;;;4.65;;
51927;SDS011;37953;52.806;18.270;2023-06-22T04:56:36;8.07;;;3.97;;
51927;SDS011;37953;52.806;18.270;2023-06-22T04:59:02;11.77;;;4.65;;
51927;SDS011;37953;52.806;18.270;2023-06-22T05:01:30;15.10;;;4.68;;
51927;SDS011;37953;52.806;18.270;2023-06-22T05:03:57;11.40;;;4.95;;
51927;SDS011;37953;52.806;18.270;2023-06-22T05:06:26;10.38;;;5.10;;
51927;SDS011;37953;52.806;18.270;2023-06-22T05:08:59;11.27;;;4.75;;
51927;SDS011;37953;52.806;18.270;2023-06-22T05:11:28;11.77;;;4.63;;
51927;SDS011;37953;52.806;18.270;2023-06-22T05:13:54;8.65;;;4.70;;
51927;SDS011;37953;52.806;18.270;2023-06-22T05:16:21;12.55;;;5.05;;
51927;SDS011;37953;52.806;18.270;2023-06-22T05:18:55;10.50;;;5.35;;
51927;SDS011;37953;52.806;18.270;2023-06-22T05:21:22;11.60;;;5.53;;
51927;SDS011;37953;52.806;18.270;2023-06-22T05:23:50;10.00;;;5.40;;
51927;SDS011;37953;52.806;18.270;2023-06-22T05:26:29;9.85;;;5.70;;
51927;SDS011;37953;52.806;18.270;2023-06-22T05:28:56;8.30;;;5.38;;
51927;SDS011;37953;52.806;18.270;2023-06-22T05:31:23;10.25;;;5.30;;
51927;SDS011;37953;52.806;18.270;2023-06-22T05:33:51;14.20;;;5.38;;
51927;SDS011;37953;52.806;18.270;2023-06-22T05:36:18;9.02;;;5.50;;
51927;SDS011;37953;52.806;18.270;2023-06-22T05:39:13;11.30;;;5.53;;
51927;SDS011;37953;52.806;18.270;2023-06-22T05:41:40;10.88;;;6.32;;
51927;SDS011;37953;52.806;18.270;2023-06-22T05:44:07;12.57;;;6.47;;
51927;SDS011;37953;52.806;18.270;2023-06-22T05:46:33;13.55;;;6.07;;
51927;SDS011;37953;52.806;18.270;2023-06-22T05:48:59;13.32;;;5.72;;
51927;SDS011;37953;52.806;18.270;2023-06-22T05:51:33;10.57;;;5.25;;
51927;SDS011;37953;52.806;18.270;2023-06-22T05:53:59;10.93;;;5.20;;
51927;SDS011;37953;52.806;18.270;2023-06-22T05:56:25;9.05;;;4.72;;
51927;SDS011;37953;52.806;18.270;2023-06-22T05:58:51;10.27;;;5.78;;
51927;SDS011;37953;52.806;18.270;2023-06-22T06:01:22;10.45;;;5.28;;
51927;SDS011;37953;52.806;18.270;2023-06-22T06:03:52;9.43;;;4.88;;
51927;SDS011;37953;52.806;18.270;2023-06-22T06:06:18;12.27;;;5.75;;
51927;SDS011;37953;52.806;18.270;2023-06-22T06:08:54;13.52;;;5.93;;
51927;SDS011;37953;52.806;18.270;2023-06-22T06:11:21;10.93;;;5.50;;
51927;SDS011;37953;52.806;18.270;2023-06-22T06:13:47;9.15;;;5.05;;
51927;SDS011;37953;52.806;18.270;2023-06-22T06:16:13;10.25;;;5.60;;
51927;SDS011;37953;52.806;18.270;2023-06-22T06:18:39;11.02;;;5.05;;
51927;SDS011;37953;52.806;18.270;2023-06-22T06:21:06;11.32;;;5.35;;
51927;SDS011;37953;52.806;18.270;2023-06-22T06:23:37;9.63;;;5.00;;
51927;SDS011;37953;52.806;18.270;2023-06-22T06:26:03;11.77;;;5.63;;
51927;SDS011;37953;52.806;18.270;2023-06-22T06:28:32;12.48;;;5.68;;
51927;SDS011;37953;52.806;18.270;2023-06-22T06:30:59;13.27;;;5.90;;
51927;SDS011;37953;52.806;18.270;2023-06-22T06:33:25;16.13;;;5.75;;
51927;SDS011;37953;52.806;18.270;2023-06-22T06:35:51;11.75;;;5.18;;
51927;SDS011;37953;52.806;18.270;2023-06-22T06:38:17;8.18;;;4.75;;
51927;SDS011;37953;52.806;18.270;2023-06-22T06:40:46;12.98;;;5.97;;
51927;SDS011;37953;52.806;18.270;2023-06-22T06:43:14;12.43;;;5.00;;
51927;SDS011;37953;52.806;18.270;2023-06-22T06:45:45;11.75;;;5.20;;
51927;SDS011;37953;52.806;18.270;2023-06-22T06:48:12;11.82;;;5.43;;
51927;SDS011;37953;52.806;18.270;2023-06-22T06:50:41;12.27;;;5.38;;
51927;SDS011;37953;52.806;18.270;2023-06-22T06:53:10;10.52;;;5.15;;
51927;SDS011;37953;52.806;18.270;2023-06-22T06:55:38;11.32;;;5.55;;
51927;SDS011;37953;52.806;18.270;2023-06-22T06:58:17;8.95;;;5.57;;
51927;SDS011;37953;52.806;18.270;2023-06-22T07:00:43;15.40;;;6.25;;
51927;SDS011;37953;52.806;18.270;2023-06-22T07:03:13;9.35;;;4.88;;
51927;SDS011;37953;52.806;18.270;2023-06-22T07:05:47;11.90;;;4.95;;
51927;SDS011;37953;52.806;18.270;2023-06-22T07:08:13;10.32;;;5.05;;
51927;SDS011;37953;52.806;18.270;2023-06-22T07:10:39;13.65;;;5.32;;
51927;SDS011;37953;52.806;18.270;2023-06-22T07:13:06;9.05;;;5.10;;
51927;SDS011;37953;52.806;18.270;2023-06-22T07:15:37;11.32;;;5.57;;
51927;SDS011;37953;52.806;18.270;2023-06-22T07:18:03;11.25;;;5.32;;
51927;SDS011;37953;52.806;18.270;2023-06-22T07:20:29;12.00;;;5.13;;
51927;SDS011;37953;52.806;18.270;2023-06-22T07:22:58;8.65;;;4.47;;
51927;SDS011;37953;52.806;18.270;2023-06-22T07:25:27;9.75;;;4.43;;
51927;SDS011;37953;52.806;18.270;2023-06-22T07:27:58;9.10;;;4.50;;
51927;SDS011;37953;52.806;18.270;2023-06-22T07:30:26;10.35;;;4.97;;
51927;SDS011;37953;52.806;18.270;2023-06-22T07:32:56;8.77;;;4.30;;
51927;SDS011;37953;52.806;18.270;2023-06-22T07:35:23;6.95;;;3.88;;
51927;SDS011;37953;52.806;18.270;2023-06-22T07:37:49;8.05;;;4.25;;
51927;SDS011;37953;52.806;18.270;2023-06-22T07:40:16;10.38;;;3.95;;
51927;SDS011;37953;52.806;18.270;2023-06-22T07:42:42;11.07;;;4.13;;
51927;SDS011;37953;52.806;18.270;2023-06-22T07:45:08;6.90;;;3.33;;
51927;SDS011;37953;52.806;18.270;2023-06-22T07:47:34;13.27;;;4.30;;
51927;SDS011;37953;52.806;18.270;2023-06-22T07:50:01;8.38;;;4.07;;
51927;SDS011;37953;52.806;18.270;2023-06-22T07:52:30;9.20;;;3.78;;
51927;SDS011;37953;52.806;18.270;2023-06-22T07:54:59;5.82;;;3.47;;
51927;SDS011;37953;52.806;18.270;2023-06-22T07:57:28;7.60;;;3.95;;
51927;SDS011;37953;52.806;18.270;2023-06-22T08:00:02;12.15;;;4.35;;
51927;SDS011;37953;52.806;18.270;2023-06-22T08:02:53;8.23;;;3.60;;
51927;SDS011;37953;52.806;18.270;2023-06-22T08:05:19;6.05;;;3.40;;
51927;SDS011;37953;52.806;18.270;2023-06-22T08:07:45;10.15;;;3.55;;
51927;SDS011;37953;52.806;18.270;2023-06-22T08:10:11;8.32;;;3.45;;
51927;SDS011;37953;52.806;18.270;2023-06-22T08:12:51;7.35;;;3.30;;
51927;SDS011;37953;52.806;18.270;2023-06-22T08:15:18;6.85;;;3.47;;
51927;SDS011;37953;52.806;18.270;2023-06-22T08:17:47;10.60;;;3.57;;
51927;SDS011;37953;52.806;18.270;2023-06-22T08:20:13;7.50;;;3.80;;
51927;SDS011;37953;52.806;18.270;2023-06-22T08:22:42;7.85;;;3.40;;
51927;SDS011;37953;52.806;18.270;2023-06-22T08:25:11;6.60;;;3.10;;
51927;SDS011;37953;52.806;18.270;2023-06-22T08:27:44;8.43;;;2.90;;
51927;SDS011;37953;52.806;18.270;2023-06-22T08:30:12;6.05;;;2.88;;
51927;SDS011;37953;52.806;18.270;2023-06-22T08:32:39;10.73;;;3.10;;
51927;SDS011;37953;52.806;18.270;2023-06-22T08:35:05;6.00;;;2.75;;
51927;SDS011;37953;52.806;18.270;2023-06-22T08:37:38;9.82;;;3.28;;
51927;SDS011;37953;52.806;18.270;2023-06-22T08:40:05;5.97;;;2.85;;
51927;SDS011;37953;52.806;18.270;2023-06-22T08:42:36;5.00;;;2.42;;
51927;SDS011;37953;52.806;18.270;2023-06-22T08:45:06;7.35;;;2.50;;
51927;SDS011;37953;52.806;18.270;2023-06-22T08:47:35;6.07;;;2.47;;
51927;SDS011;37953;52.806;18.270;2023-06-22T08:50:01;4.72;;;1.95;;
51927;SDS011;37953;52.806;18.270;2023-06-22T08:52:31;4.93;;;2.35;;
51927;SDS011;37953;52.806;18.270;2023-06-22T08:54:57;4.50;;;2.25;;
51927;SDS011;37953;52.806;18.270;2023-06-22T08:57:24;8.38;;;2.65;;
51927;SDS011;37953;52.806;18.270;2023-06-22T08:59:50;7.82;;;2.10;;
51927;SDS011;37953;52.806;18.270;2023-06-22T09:02:18;6.10;;;2.20;;
51927;SDS011;37953;52.806;18.270;2023-06-22T09:04:57;7.30;;;2.42;;
51927;SDS011;37953;52.806;18.270;2023-06-22T09:07:24;5.88;;;2.20;;
51927;SDS011;37953;52.806;18.270;2023-06-22T09:09:51;6.10;;;2.30;;
51927;SDS011;37953;52.806;18.270;2023-06-22T09:12:18;6.15;;;2.42;;
51927;SDS011;37953;52.806;18.270;2023-06-22T09:14:45;6.13;;;2.20;;
51927;SDS011;37953;52.806;18.270;2023-06-22T09:17:12;4.32;;;1.90;;
51927;SDS011;37953;52.806;18.270;2023-06-22T09:19:39;6.22;;;2.13;;
51927;SDS011;37953;52.806;18.270;2023-06-22T09:22:08;5.13;;;2.05;;
51927;SDS011;37953;52.806;18.270;2023-06-22T09:24:37;6.68;;;2.08;;
51927;SDS011;37953;52.806;18.270;2023-06-22T09:27:06;4.30;;;1.77;;
51927;SDS011;37953;52.806;18.270;2023-06-22T09:29:38;6.20;;;2.03;;
51927;SDS011;37953;52.806;18.270;2023-06-22T09:32:10;4.60;;;1.77;;
51927;SDS011;37953;52.806;18.270;2023-06-22T09:34:42;5.65;;;1.80;;
51927;SDS011;37953;52.806;18.270;2023-06-22T09:37:08;5.88;;;2.17;;
51927;SDS011;37953;52.806;18.270;2023-06-22T09:39:37;4.32;;;2.10;;
51927;SDS011;37953;52.806;18.270;2023-06-22T09:42:04;5.85;;;2.17;;
51927;SDS011;37953;52.806;18.270;2023-06-22T09:44:36;5.32;;;2.20;;
51927;SDS011;37953;52.806;18.270;2023-06-22T09:47:17;3.72;;;1.75;;
51927;SDS011;37953;52.806;18.270;2023-06-22T09:49:43;6.57;;;2.33;;
51927;SDS011;37953;52.806;18.270;2023-06-22T09:52:09;6.03;;;1.90;;
51927;SDS011;37953;52.806;18.270;2023-06-22T09:54:44;4.50;;;1.73;;
51927;SDS011;37953;52.806;18.270;2023-06-22T09:57:10;4.32;;;1.90;;
51927;SDS011;37953;52.806;18.270;2023-06-22T09:59:37;7.80;;;2.60;;
51927;SDS011;37953;52.806;18.270;2023-06-22T10:02:05;4.03;;;2.00;;
51927;SDS011;37953;52.806;18.270;2023-06-22T10:04:32;6.55;;;1.98;;
51927;SDS011;37953;52.806;18.270;2023-06-22T10:06:59;3.67;;;1.60;;
51927;SDS011;37953;52.806;18.270;2023-06-22T10:09:26;4.07;;;1.98;;
51927;SDS011;37953;52.806;18.270;2023-06-22T10:11:52;5.60;;;2.28;;
51927;SDS011;37953;52.806;18.270;2023-06-22T10:14:23;7.35;;;2.20;;
51927;SDS011;37953;52.806;18.270;2023-06-22T10:16:55;4.82;;;1.67;;
51927;SDS011;37953;52.806;18.270;2023-06-22T10:19:27;5.55;;;1.98;;
51927;SDS011;37953;52.806;18.270;2023-06-22T10:21:55;4.50;;;1.70;;
51927;SDS011;37953;52.806;18.270;2023-06-22T10:24:21;4.07;;;2.13;;
51927;SDS011;37953;52.806;18.270;2023-06-22T10:26:47;5.20;;;2.28;;
51927;SDS011;37953;52.806;18.270;2023-06-22T10:29:13;3.42;;;2.10;;
51927;SDS011;37953;52.806;18.270;2023-06-22T10:31:40;3.42;;;1.90;;
51927;SDS011;37953;52.806;18.270;2023-06-22T10:34:08;4.22;;;1.85;;
51927;SDS011;37953;52.806;18.270;2023-06-22T10:36:34;3.78;;;1.85;;
51927;SDS011;37953;52.806;18.270;2023-06-22T10:39:00;3.58;;;1.70;;
51927;SDS011;37953;52.806;18.270;2023-06-22T10:41:28;5.30;;;2.00;;
51927;SDS011;37953;52.806;18.270;2023-06-22T10:43:57;6.55;;;2.00;;
51927;SDS011;37953;52.806;18.270;2023-06-22T10:46:24;5.70;;;2.00;;
51927;SDS011;37953;52.806;18.270;2023-06-22T10:48:56;6.25;;;2.22;;
51927;SDS011;37953;52.806;18.270;2023-06-22T10:51:24;4.90;;;1.67;;
51927;SDS011;37953;52.806;18.270;2023-06-22T10:53:51;5.82;;;2.10;;
51927;SDS011;37953;52.806;18.270;2023-06-22T10:56:18;5.72;;;2.30;;
51927;SDS011;37953;52.806;18.270;2023-06-22T10:58:44;4.78;;;2.08;;
51927;SDS011;37953;52.806;18.270;2023-06-22T11:01:11;5.15;;;2.10;;
51927;SDS011;37953;52.806;18.270;2023-06-22T11:03:40;4.93;;;1.95;;
51927;SDS011;37953;52.806;18.270;2023-06-22T11:06:10;3.17;;;1.85;;
51927;SDS011;37953;52.806;18.270;2023-06-22T11:08:42;4.35;;;2.10;;
51927;SDS011;37953;52.806;18.270;2023-06-22T11:11:18;5.22;;;2.08;;
51927;SDS011;37953;52.806;18.270;2023-06-22T11:13:44;6.88;;;2.03;;
51927;SDS011;37953;52.806;18.270;2023-06-22T11:16:20;4.90;;;2.05;;
51927;SDS011;37953;52.806;18.270;2023-06-22T11:18:49;7.10;;;2.10;;
51927;SDS011;37953;52.806;18.270;2023-06-22T11:21:27;8.20;;;2.10;;
51927;SDS011;37953;52.806;18.270;2023-06-22T11:24:01;5.60;;;2.20;;
51927;SDS011;37953;52.806;18.270;2023-06-22T11:26:30;6.45;;;2.20;;
51927;SDS011;37953;52.806;18.270;2023-06-22T11:28:57;4.40;;;2.13;;
51927;SDS011;37953;52.806;18.270;2023-06-22T11:31:36;6.57;;;2.25;;
51927;SDS011;37953;52.806;18.270;2023-06-22T11:34:17;6.78;;;2.30;;
51927;SDS011;37953;52.806;18.270;2023-06-22T11:36:54;3.63;;;1.97;;
51927;SDS011;37953;52.806;18.270;2023-06-22T11:39:32;3.53;;;1.92;;
51927;SDS011;37953;52.806;18.270;2023-06-22T11:42:01;4.63;;;1.92;;
51927;SDS011;37953;52.806;18.270;2023-06-22T11:44:30;3.97;;;2.20;;
51927;SDS011;37953;52.806;18.270;2023-06-22T11:46:59;4.47;;;1.83;;
51927;SDS011;37953;52.806;18.270;2023-06-22T11:49:28;4.93;;;2.05;;
51927;SDS011;37953;52.806;18.270;2023-06-22T11:52:01;4.03;;;2.00;;
51927;SDS011;37953;52.806;18.270;2023-06-22T11:54:32;5.80;;;1.85;;
51927;SDS011;37953;52.806;18.270;2023-06-22T11:56:59;4.32;;;2.20;;
51927;SDS011;37953;52.806;18.270;2023-06-22T11:59:31;4.88;;;2.17;;
51927;SDS011;37953;52.806;18.270;2023-06-22T12:02:04;3.28;;;1.80;;
51927;SDS011;37953;52.806;18.270;2023-06-22T12:04:41;3.35;;;1.70;;
51927;SDS011;37953;52.806;18.270;2023-06-22T12:07:10;4.50;;;1.75;;
51927;SDS011;37953;52.806;18.270;2023-06-22T12:09:44;6.55;;;2.20;;
51927;SDS011;37953;52.806;18.270;2023-06-22T12:12:16;2.92;;;1.67;;
51927;SDS011;37953;52.806;18.270;2023-06-22T12:17:23;6.13;;;1.88;;
51927;SDS011;37953;52.806;18.270;2023-06-22T12:19:55;5.97;;;2.10;;
51927;SDS011;37953;52.806;18.270;2023-06-22T12:22:28;4.40;;;1.90;;
51927;SDS011;37953;52.806;18.270;2023-06-22T12:25:07;6.43;;;1.90;;
51927;SDS011;37953;52.806;18.270;2023-06-22T12:27:45;3.85;;;2.20;;
51927;SDS011;37953;52.806;18.270;2023-06-22T12:30:23;8.30;;;2.38;;
51927;SDS011;37953;52.806;18.270;2023-06-22T12:32:57;5.07;;;2.10;;
51927;SDS011;37953;52.806;18.270;2023-06-22T12:35:25;3.72;;;1.70;;
51927;SDS011;37953;52.806;18.270;2023-06-22T12:37:59;5.40;;;2.00;;
51927;SDS011;37953;52.806;18.270;2023-06-22T12:40:31;6.17;;;1.80;;
51927;SDS011;37953;52.806;18.270;2023-06-22T12:43:03;4.75;;;2.30;;
51927;SDS011;37953;52.806;18.270;2023-06-22T12:45:38;5.40;;;2.30;;
51927;SDS011;37953;52.806;18.270;2023-06-22T12:48:12;5.82;;;2.00;;
51927;SDS011;37953;52.806;18.270;2023-06-22T12:50:47;6.32;;;2.13;;
51927;SDS011;37953;52.806;18.270;2023-06-22T12:53:30;6.03;;;2.00;;
51927;SDS011;37953;52.806;18.270;2023-06-22T12:55:56;4.75;;;1.70;;
51927;SDS011;37953;52.806;18.270;2023-06-22T12:58:28;5.68;;;1.85;;
51927;SDS011;37953;52.806;18.270;2023-06-22T13:01:02;6.72;;;2.00;;
51927;SDS011;37953;52.806;18.270;2023-06-22T13:03:31;8.95;;;2.15;;
51927;SDS011;37953;52.806;18.270;2023-06-22T13:06:07;7.45;;;1.88;;
51927;SDS011;37953;52.806;18.270;2023-06-22T13:08:36;3.75;;;1.83;;
51927;SDS011;37953;52.806;18.270;2023-06-22T13:11:20;2.83;;;1.70;;
51927;SDS011;37953;52.806;18.270;2023-06-22T13:13:46;10.07;;;2.45;;
51927;SDS011;37953;52.806;18.270;2023-06-22T13:16:12;4.70;;;1.88;;
51927;SDS011;37953;52.806;18.270;2023-06-22T13:18:42;5.88;;;2.03;;
51927;SDS011;37953;52.806;18.270;2023-06-22T13:21:15;5.18;;;2.03;;
51927;SDS011;37953;52.806;18.270;2023-06-22T13:23:50;5.97;;;1.63;;
51927;SDS011;37953;52.806;18.270;2023-06-22T13:26:25;5.47;;;2.22;;
51927;SDS011;37953;52.806;18.270;2023-06-22T13:28:59;5.68;;;2.08;;
51927;SDS011;37953;52.806;18.270;2023-06-22T13:31:25;3.65;;;1.80;;
51927;SDS011;37953;52.806;18.270;2023-06-22T13:33:51;4.30;;;1.90;;
51927;SDS011;37953;52.806;18.270;2023-06-22T13:36:18;4.90;;;2.05;;
51927;SDS011;37953;52.806;18.270;2023-06-22T13:38:45;6.20;;;2.17;;
51927;SDS011;37953;52.806;18.270;2023-06-22T13:41:13;4.45;;;1.83;;
51927;SDS011;37953;52.806;18.270;2023-06-22T13:43:40;4.45;;;1.85;;
51927;SDS011;37953;52.806;18.270;2023-06-22T13:46:06;7.53;;;2.00;;
51927;SDS011;37953;52.806;18.270;2023-06-22T13:48:32;6.50;;;2.08;;
51927;SDS011;37953;52.806;18.270;2023-06-22T13:51:08;3.45;;;1.95;;
51927;SDS011;37953;52.806;18.270;2023-06-22T13:53:38;4.25;;;2.08;;
51927;SDS011;37953;52.806;18.270;2023-06-22T13:56:04;5.93;;;2.05;;
51927;SDS011;37953;52.806;18.270;2023-06-22T13:58:30;6.00;;;1.90;;
51927;SDS011;37953;52.806;18.270;2023-06-22T14:00:56;5.85;;;1.98;;
51927;SDS011;37953;52.806;18.270;2023-06-22T14:03:23;5.90;;;2.28;;
51927;SDS011;37953;52.806;18.270;2023-06-22T14:06:03;7.78;;;2.25;;
51927;SDS011;37953;52.806;18.270;2023-06-22T14:08:37;7.13;;;2.15;;
51927;SDS011;37953;52.806;18.270;2023-06-22T14:11:03;5.32;;;2.00;;
51927;SDS011;37953;52.806;18.270;2023-06-22T14:13:38;6.38;;;2.00;;
51927;SDS011;37953;52.806;18.270;2023-06-22T14:16:16;5.40;;;1.83;;
51927;SDS011;37953;52.806;18.270;2023-06-22T14:18:54;5.38;;;1.90;;
51927;SDS011;37953;52.806;18.270;2023-06-22T14:21:37;4.68;;;1.88;;
51927;SDS011;37953;52.806;18.270;2023-06-22T14:24:12;5.60;;;1.80;;
51927;SDS011;37953;52.806;18.270;2023-06-22T14:26:47;7.50;;;2.00;;
51927;SDS011;37953;52.806;18.270;2023-06-22T14:29:25;7.68;;;2.60;;
51927;SDS011;37953;52.806;18.270;2023-06-22T14:31:55;4.78;;;2.25;;
51927;SDS011;37953;52.806;18.270;2023-06-22T14:34:24;3.80;;;2.15;;
51927;SDS011;37953;52.806;18.270;2023-06-22T14:36:58;6.68;;;2.10;;
51927;SDS011;37953;52.806;18.270;2023-06-22T14:39:31;7.60;;;2.45;;
51927;SDS011;37953;52.806;18.270;2023-06-22T14:42:06;5.75;;;1.98;;
51927;SDS011;37953;52.806;18.270;2023-06-22T14:44:40;6.90;;;2.10;;
51927;SDS011;37953;52.806;18.270;2023-06-22T14:47:12;3.15;;;1.80;;
51927;SDS011;37953;52.806;18.270;2023-06-22T14:49:48;4.43;;;1.90;;
51927;SDS011;37953;52.806;18.270;2023-06-22T14:52:16;4.45;;;1.85;;